Time;durP1;ratioP1;P1;durP2;ratioP2;P2;SDS_P1;SDS_P2;PMS_P1;PMS_P2;Temp;Humidity;BMP_temperature;BMP_pressure;BME280_temperature;BME280_humidity;BME280_pressure;Samples;Min_cycle;Max_cycle;Signal;HPM_P1;HPM_P2
2022/07/21 00:01:23;;;;;;;2.70;1.35;;;23.60;52.00;23.80;100586.00;;;;4955644;28;88715;-63
2022/07/21 00:03:49;;;;;;;1.20;1.10;;;23.60;52.00;23.80;100596.00;;;;4956855;28;99805;-63
2022/07/21 00:06:15;;;;;;;2.70;1.23;;;23.60;52.00;23.80;100593.00;;;;4955861;28;96181;-63
2022/07/21 00:08:41;;;;;;;1.30;1.20;;;23.60;52.00;23.80;100598.00;;;;4954077;28;118220;-63
2022/07/21 00:11:07;;;;;;;2.38;1.65;;;23.60;52.00;23.70;100602.00;;;;4954948;28;87996;-62
2022/07/21 00:13:32;;;;;;;1.50;1.05;;;23.50;52.00;23.70;100603.00;;;;4955449;28;88708;-63
2022/07/21 00:15:58;;;;;;;1.88;1.13;;;23.50;52.00;23.70;100600.00;;;;4956133;28;87823;-63
2022/07/21 00:18:24;;;;;;;2.20;2.00;;;23.50;52.20;23.70;100595.00;;;;4955781;28;88666;-63
2022/07/21 00:20:50;;;;;;;1.38;1.27;;;23.50;52.50;23.60;100603.00;;;;4955038;28;109639;-63
2022/07/21 00:23:16;;;;;;;2.78;1.88;;;23.40;52.70;23.50;100614.00;;;;4937527;28;87728;-62
2022/07/21 00:25:42;;;;;;;2.22;1.73;;;23.30;53.00;23.40;100614.00;;;;4955786;28;87633;-62
2022/07/21 00:28:07;;;;;;;1.63;1.52;;;23.30;53.80;23.40;100621.00;;;;4953925;28;109160;-62
2022/07/21 00:30:33;;;;;;;1.90;1.52;;;23.20;53.40;23.30;100613.00;;;;4955921;28;93360;-63
2022/07/21 00:32:59;;;;;;;1.55;1.27;;;23.10;53.50;23.20;100611.00;;;;4954161;28;110257;-63
2022/07/21 00:35:25;;;;;;;2.30;1.67;;;23.10;53.80;23.20;100606.00;;;;4954500;28;108467;-63
2022/07/21 00:37:51;;;;;;;1.77;1.60;;;23.00;53.90;23.10;100612.00;;;;4953981;28;118549;-63
2022/07/21 00:40:17;;;;;;;2.75;1.60;;;23.00;54.00;23.10;100608.00;;;;4955525;28;88921;-63
2022/07/21 00:42:43;;;;;;;1.50;1.33;;;22.90;54.20;23.00;100603.00;;;;4954403;28;109983;-63
2022/07/21 00:45:10;;;;;;;2.45;1.42;;;22.90;54.40;23.00;100600.00;;;;4956529;28;87930;-63
2022/07/21 00:47:37;;;;;;;1.20;1.00;;;22.80;54.60;22.90;100601.00;;;;4954138;28;103634;-63
2022/07/21 00:50:09;;;;;;;2.40;2.05;;;22.80;54.70;22.90;100606.00;;;;4955409;28;89256;-63
2022/07/21 00:52:35;;;;;;;1.38;1.27;;;22.70;54.90;22.90;100594.00;;;;4955084;28;94465;-63
2022/07/21 00:55:02;;;;;;;2.80;1.33;;;22.70;54.90;22.90;100596.00;;;;4956048;28;87225;-63
2022/07/21 00:57:28;;;;;;;1.73;1.13;;;22.70;55.00;22.90;100591.00;;;;4954957;28;89081;-63
2022/07/21 00:59:54;;;;;;;1.75;1.58;;;22.70;55.00;22.80;100591.00;;;;4961368;28;102491;-64
2022/07/21 01:02:19;;;;;;;2.90;2.25;;;22.70;54.90;22.80;100600.00;;;;4953355;28;109112;-63
2022/07/21 01:04:45;;;;;;;2.83;1.33;;;22.70;55.00;22.80;100590.00;;;;4954007;28;108411;-63
2022/07/21 01:07:11;;;;;;;2.08;1.30;;;22.60;55.10;22.80;100596.00;;;;4953699;28;118230;-63
2022/07/21 01:09:37;;;;;;;2.50;2.20;;;22.60;55.20;22.70;100590.00;;;;4953692;28;116143;-64
2022/07/21 01:12:04;;;;;;;1.50;1.40;;;22.60;55.30;22.70;100593.00;;;;4954937;28;87823;-63
2022/07/21 01:14:30;;;;;;;1.48;1.38;;;22.60;55.40;22.70;100602.00;;;;4954880;28;88099;-63
2022/07/21 01:16:55;;;;;;;1.48;1.38;;;22.50;55.50;22.60;100600.00;;;;4935864;28;111017;-63
2022/07/21 01:19:21;;;;;;;2.55;1.40;;;22.50;56.40;22.60;100598.00;;;;4953466;28;119181;-63
2022/07/21 01:21:48;;;;;;;4.05;1.98;;;22.40;56.10;22.50;100612.00;;;;4935570;28;110556;-63
2022/07/21 01:24:15;;;;;;;3.30;1.88;;;22.40;56.40;22.40;100601.00;;;;4953995;28;109068;-63
2022/07/21 01:26:45;;;;;;;3.40;1.55;;;22.30;56.60;22.30;100611.00;;;;4953413;28;111469;-63
2022/07/21 01:29:11;;;;;;;3.72;1.80;;;22.20;56.80;22.30;100618.00;;;;4954311;28;105830;-63
2022/07/21 01:31:40;;;;;;;1.13;1.10;;;22.10;57.00;22.20;100637.00;;;;4955122;28;87846;-63
2022/07/21 01:34:07;;;;;;;1.52;1.10;;;22.00;57.30;22.10;100643.00;;;;4953531;28;87910;-63
2022/07/21 01:36:33;;;;;;;2.90;1.73;;;22.00;57.70;22.00;100647.00;;;;4954437;28;92898;-63
2022/07/21 01:41:44;;;;;;;1.30;1.20;;;21.80;58.40;21.80;100654.00;;;;4951937;28;87885;-63
2022/07/21 01:44:12;;;;;;;2.10;1.90;;;21.60;58.50;21.70;100646.00;;;;4956740;28;108246;-63
2022/07/21 01:46:45;;;;;;;1.00;1.00;;;21.60;58.60;21.60;100639.00;;;;4957931;28;88669;-63
2022/07/21 01:49:13;;;;;;;3.30;1.40;;;21.50;58.90;21.60;100641.00;;;;4958088;28;87928;-63
2022/07/21 01:51:39;;;;;;;1.75;1.35;;;21.40;58.90;21.60;100638.00;;;;4957598;28;88978;-63
2022/07/21 01:54:07;;;;;;;3.90;1.85;;;21.40;59.50;21.50;100625.00;;;;4957773;28;87782;-63
2022/07/21 01:56:34;;;;;;;2.47;1.73;;;21.30;59.80;21.50;100618.00;;;;4957564;28;102666;-63
2022/07/21 01:59:00;;;;;;;2.53;1.55;;;21.30;60.70;21.50;100611.00;;;;4951486;28;95138;-63
2022/07/21 02:01:30;;;;;;;2.08;1.38;;;21.30;60.90;21.50;100613.00;;;;4958253;28;88100;-63
2022/07/21 02:04:00;;;;;;;4.05;1.60;;;21.30;60.70;21.50;100605.00;;;;4958491;28;87625;-63
2022/07/21 02:06:27;;;;;;;2.30;2.10;;;21.30;60.70;21.50;100612.00;;;;4922463;28;96778;-63
2022/07/21 02:08:53;;;;;;;1.85;1.50;;;21.30;60.60;21.60;100618.00;;;;4958707;28;87786;-63
2022/07/21 02:11:20;;;;;;;1.60;1.50;;;21.30;60.50;21.60;100635.00;;;;4956649;28;110652;-63
2022/07/21 02:13:46;;;;;;;1.33;1.17;;;21.40;60.40;21.60;100636.00;;;;4958369;28;88013;-63
2022/07/21 02:16:12;;;;;;;2.28;2.08;;;21.40;60.30;21.60;100649.00;;;;4954382;28;89432;-63
2022/07/21 02:18:38;;;;;;;2.10;1.63;;;21.40;60.30;21.60;100635.00;;;;4956991;28;89370;-63
2022/07/21 02:21:05;;;;;;;2.58;1.90;;;21.40;60.10;21.70;100644.00;;;;4956483;28;111702;-63
2022/07/21 02:23:31;;;;;;;10.32;1.40;;;21.40;60.10;21.70;100652.00;;;;4935660;28;87974;-63
2022/07/21 02:25:57;;;;;;;2.58;1.75;;;21.50;60.10;21.70;100649.00;;;;4918904;28;100981;-63
2022/07/21 02:28:24;;;;;;;2.08;1.88;;;21.40;60.10;21.70;100655.00;;;;4951136;28;87818;-63
2022/07/21 02:30:51;;;;;;;4.05;1.70;;;21.50;60.10;21.80;100645.00;;;;4955305;28;111134;-63
2022/07/21 02:33:17;;;;;;;2.63;1.15;;;21.60;60.30;21.80;100663.00;;;;4957453;28;93798;-63
2022/07/21 02:35:44;;;;;;;1.45;1.35;;;21.60;60.20;21.80;100655.00;;;;4955012;28;118104;-64
2022/07/21 02:38:11;;;;;;;3.92;1.85;;;21.60;60.30;21.80;100655.00;;;;4956660;28;87810;-63
2022/07/21 02:40:40;;;;;;;2.47;1.77;;;21.60;60.10;21.90;100655.00;;;;4937566;28;88736;-63
2022/07/21 02:43:06;;;;;;;4.28;1.63;;;21.70;60.30;21.90;100652.00;;;;4956999;28;87820;-63
2022/07/21 02:45:33;;;;;;;4.25;1.55;;;21.70;60.10;21.90;100650.00;;;;4921326;28;117191;-64
2022/07/21 02:48:09;;;;;;;2.45;2.05;;;21.70;60.00;21.90;100649.00;;;;4956371;28;92864;-63
2022/07/21 02:50:37;;;;;;;1.38;1.27;;;21.70;60.90;21.90;100659.00;;;;4958148;28;87703;-63
2022/07/21 02:53:13;;;;;;;1.60;1.30;;;21.70;60.20;21.90;100664.00;;;;4957603;28;87597;-63
2022/07/21 02:55:40;;;;;;;2.45;2.08;;;21.70;60.20;21.90;100669.00;;;;4955623;28;87857;-64
2022/07/21 02:58:27;;;;;;;2.28;2.08;;;21.70;60.10;21.90;100670.00;;;;4957090;28;88874;-63
2022/07/21 03:01:04;;;;;;;3.72;1.50;;;21.80;60.10;21.90;100666.00;;;;4956263;28;96215;-63
2022/07/21 03:03:33;;;;;;;4.50;2.05;;;21.70;60.00;21.90;100675.00;;;;4956857;28;87641;-63
2022/07/21 03:05:59;;;;;;;1.73;1.63;;;21.70;60.20;21.90;100674.00;;;;4955867;28;89160;-64
2022/07/21 03:08:27;;;;;;;2.45;1.58;;;21.70;60.30;21.90;100675.00;;;;4956647;28;89207;-65
2022/07/21 03:10:53;;;;;;;2.42;1.33;;;21.70;60.50;21.90;100673.00;;;;4956300;28;88071;-63
2022/07/21 03:13:19;;;;;;;1.77;1.45;;;21.70;60.50;22.00;100682.00;;;;4956489;28;87624;-63
2022/07/21 03:15:45;;;;;;;1.60;1.38;;;21.70;60.50;22.00;100683.00;;;;4955044;28;118640;-63
2022/07/21 03:18:11;;;;;;;1.90;1.30;;;21.70;60.50;22.00;100684.00;;;;4955714;28;87759;-62
2022/07/21 03:20:39;;;;;;;2.78;2.05;;;21.80;60.40;22.10;100692.00;;;;4955198;28;105975;-62
2022/07/21 03:23:05;;;;;;;2.20;1.95;;;21.80;60.40;22.10;100698.00;;;;4956372;28;95544;-62
2022/07/21 03:25:32;;;;;;;4.97;1.70;;;21.90;60.40;22.20;100693.00;;;;4955064;28;110602;-62
2022/07/21 03:27:58;;;;;;;0.98;0.98;;;21.90;60.50;22.20;100695.00;;;;4955681;28;90041;-62
2022/07/21 03:30:24;;;;;;;2.88;1.80;;;22.00;60.50;22.30;100692.00;;;;4955222;28;88568;-62
2022/07/21 03:32:51;;;;;;;1.90;1.27;;;22.00;60.40;22.30;100688.00;;;;4956180;28;87796;-62
2022/07/21 03:35:17;;;;;;;3.17;2.30;;;22.00;61.20;22.30;100684.00;;;;4956136;28;88800;-62
2022/07/21 03:37:56;;;;;;;3.08;1.77;;;22.00;60.50;22.30;100690.00;;;;4953711;28;87978;-62
2022/07/21 03:40:24;;;;;;;2.35;1.55;;;22.10;60.50;22.30;100689.00;;;;4955696;28;102085;-62
2022/07/21 03:42:51;;;;;;;2.95;1.52;;;22.10;60.50;22.30;100689.00;;;;4956311;28;87845;-62
2022/07/21 03:45:17;;;;;;;2.47;1.98;;;22.10;60.40;22.30;100703.00;;;;4956301;28;88430;-62
2022/07/21 03:47:43;;;;;;;2.10;1.65;;;22.10;60.40;22.30;100704.00;;;;4955397;28;116416;-62
2022/07/21 03:50:11;;;;;;;3.03;1.92;;;22.10;60.50;22.40;100710.00;;;;4956155;28;88070;-62
2022/07/21 03:52:37;;;;;;;2.25;1.95;;;22.10;60.60;22.40;100711.00;;;;4955954;28;87927;-62
2022/07/21 03:55:10;;;;;;;3.08;2.08;;;22.10;60.60;22.40;100715.00;;;;4954819;28;90321;-62
2022/07/21 03:57:42;;;;;;;3.00;1.98;;;22.20;60.70;22.40;100724.00;;;;4956247;28;87834;-63
2022/07/21 04:00:13;;;;;;;3.00;1.42;;;22.20;60.90;22.40;100731.00;;;;4955820;28;87928;-62
2022/07/21 04:02:39;;;;;;;2.45;1.90;;;22.20;60.90;22.40;100727.00;;;;4956163;28;87776;-62
2022/07/21 04:05:05;;;;;;;2.90;1.95;;;22.20;61.00;22.40;100732.00;;;;4955417;28;88315;-62
2022/07/21 04:07:31;;;;;;;8.40;2.25;;;22.20;60.90;22.40;100734.00;;;;4945579;28;88859;-62
2022/07/21 04:09:56;;;;;;;5.63;3.10;;;22.20;61.20;22.40;100733.00;;;;4933259;28;113441;-62
2022/07/21 04:12:27;;;;;;;2.65;1.73;;;22.20;61.40;22.40;100740.00;;;;4956156;28;86754;-62
2022/07/21 04:14:54;;;;;;;2.63;2.13;;;22.20;61.80;22.40;100743.00;;;;4936301;28;89224;-62
2022/07/21 04:17:20;;;;;;;2.00;1.80;;;22.20;62.10;22.40;100744.00;;;;4955274;28;87729;-62
2022/07/21 04:19:46;;;;;;;5.38;2.33;;;22.20;62.50;22.50;100751.00;;;;4936424;28;88989;-62
2022/07/21 04:22:11;;;;;;;3.90;2.67;;;22.20;63.60;22.50;100759.00;;;;4955228;28;87838;-62
2022/07/21 04:24:37;;;;;;;2.85;2.45;;;22.20;64.00;22.50;100758.00;;;;4954612;28;116093;-62
2022/07/21 04:27:03;;;;;;;6.55;3.17;;;22.30;65.40;22.60;100765.00;;;;4936193;28;117206;-61
2022/07/21 04:29:28;;;;;;;6.20;2.72;;;22.30;65.80;22.60;100767.00;;;;4953865;28;109600;-61
2022/07/21 04:31:54;;;;;;;3.17;2.88;;;22.40;66.00;22.70;100767.00;;;;4955626;28;87830;-61
2022/07/21 04:34:20;;;;;;;3.50;2.78;;;22.40;66.10;22.70;100776.00;;;;4954867;28;91179;-62
2022/07/21 04:36:46;;;;;;;4.45;2.58;;;22.50;66.40;22.80;100779.00;;;;4936336;28;118014;-62
2022/07/21 04:39:11;;;;;;;11.00;2.53;;;22.50;66.90;22.80;100787.00;;;;4953892;28;111175;-63
2022/07/21 04:41:37;;;;;;;6.97;2.55;;;22.50;67.30;22.90;100791.00;;;;4954294;28;109054;-63
2022/07/21 04:44:03;;;;;;;2.03;1.92;;;22.60;67.30;22.90;100787.00;;;;4953453;28;118215;-63
2022/07/21 04:46:29;;;;;;;4.47;2.72;;;22.70;67.50;23.00;100788.00;;;;4958041;28;105300;-63
2022/07/21 04:48:54;;;;;;;2.35;2.15;;;22.70;67.60;23.10;100788.00;;;;4954612;28;110722;-63
2022/07/21 04:51:20;;;;;;;5.97;3.20;;;22.80;68.00;23.10;100792.00;;;;4954825;28;108752;-63
2022/07/21 04:53:46;;;;;;;4.18;3.10;;;22.80;68.50;23.20;100792.00;;;;4954211;28;118155;-63
2022/07/21 04:56:11;;;;;;;6.65;2.97;;;22.90;68.90;23.30;100784.00;;;;4954909;28;88813;-63
2022/07/21 04:58:37;;;;;;;4.10;3.13;;;23.00;69.10;23.40;100788.00;;;;4953589;28;109744;-63
2022/07/21 05:01:03;;;;;;;5.53;3.20;;;23.10;69.10;23.50;100780.00;;;;4954484;28;108492;-64
2022/07/21 05:03:28;;;;;;;5.80;3.17;;;23.20;69.50;23.60;100784.00;;;;4954045;28;109762;-64
2022/07/21 05:05:54;;;;;;;6.40;3.03;;;23.30;69.50;23.70;100771.00;;;;4953488;28;118367;-64
2022/07/21 05:08:20;;;;;;;3.10;2.70;;;23.40;69.20;23.90;100780.00;;;;4952782;28;110030;-64
2022/07/21 05:10:45;;;;;;;4.35;2.83;;;23.50;69.00;24.00;100779.00;;;;4953824;28;109382;-63
2022/07/21 05:13:11;;;;;;;5.45;3.42;;;23.70;69.20;24.20;100780.00;;;;4953890;28;118264;-62
2022/07/21 05:15:37;;;;;;;4.20;3.33;;;23.80;69.00;24.30;100786.00;;;;4953021;28;118201;-63
2022/07/21 05:18:03;;;;;;;6.18;3.05;;;24.00;68.90;24.50;100784.00;;;;4956061;28;87818;-62
2022/07/21 05:20:28;;;;;;;5.50;3.30;;;24.10;68.60;24.70;100778.00;;;;4958817;28;87946;-63
2022/07/21 05:22:54;;;;;;;4.28;3.00;;;24.40;68.30;24.90;100775.00;;;;4956320;28;108967;-63
2022/07/21 05:25:19;;;;;;;3.83;2.67;;;24.50;67.80;25.10;100768.00;;;;4957162;28;117533;-64
2022/07/21 05:27:45;;;;;;;3.47;2.78;;;24.70;67.30;25.20;100766.00;;;;4956797;28;112264;-64
2022/07/21 05:30:11;;;;;;;2.88;2.55;;;24.90;66.70;25.40;100774.00;;;;4956602;28;107617;-64
2022/07/21 05:32:37;;;;;;;4.15;2.55;;;25.10;66.10;25.60;100780.00;;;;4957453;28;89229;-63
2022/07/21 05:35:10;;;;;;;3.08;2.67;;;25.30;65.50;25.80;100778.00;;;;4957958;28;88811;-64
2022/07/21 05:37:40;;;;;;;4.70;3.30;;;25.50;64.90;26.00;100769.00;;;;4958274;28;87814;-63
2022/07/21 05:40:08;;;;;;;3.13;2.15;;;25.70;64.30;26.20;100769.00;;;;4958322;28;87929;-63
2022/07/21 05:42:34;;;;;;;3.90;2.92;;;25.80;63.50;26.40;100787.00;;;;4957041;28;88958;-64
2022/07/21 05:45:01;;;;;;;3.95;3.15;;;26.10;62.60;26.60;100784.00;;;;4957950;28;87900;-64
2022/07/21 05:47:26;;;;;;;5.03;3.20;;;26.30;61.10;26.80;100785.00;;;;4957332;28;87745;-64
2022/07/21 05:49:52;;;;;;;4.70;2.90;;;26.40;60.50;27.00;100788.00;;;;4957693;28;109002;-62
2022/07/21 05:52:18;;;;;;;3.53;2.38;;;26.60;59.90;27.10;100784.00;;;;4957216;28;118171;-62
2022/07/21 05:54:43;;;;;;;4.32;3.10;;;26.80;59.30;27.30;100793.00;;;;4958078;28;88113;-62
2022/07/21 05:57:09;;;;;;;3.72;2.90;;;27.00;58.80;27.50;100792.00;;;;4956714;28;110401;-63
2022/07/21 05:59:35;;;;;;;7.53;3.80;;;27.10;58.00;27.70;100790.00;;;;4957644;28;87814;-63
2022/07/21 06:02:01;;;;;;;2.70;2.50;;;27.30;57.50;27.80;100796.00;;;;4939092;28;88306;-62
2022/07/21 06:04:26;;;;;;;4.88;3.13;;;27.50;57.00;27.90;100791.00;;;;4957019;28;115968;-63
2022/07/21 06:06:52;;;;;;;5.25;3.15;;;27.50;56.10;27.90;100785.00;;;;4957623;28;87700;-64
2022/07/21 06:09:19;;;;;;;6.18;3.35;;;27.60;55.80;28.00;100789.00;;;;4957454;28;87745;-63
2022/07/21 06:11:45;;;;;;;2.80;2.55;;;27.70;55.30;28.10;100789.00;;;;4957694;28;88299;-64
2022/07/21 06:14:10;;;;;;;6.10;3.28;;;27.80;55.00;28.20;100788.00;;;;4939119;28;88569;-62
2022/07/21 06:16:36;;;;;;;3.72;2.80;;;27.90;54.70;28.30;100795.00;;;;4956891;28;108732;-63
2022/07/21 06:19:03;;;;;;;4.30;2.85;;;28.00;54.40;28.40;100794.00;;;;4957466;28;88502;-64
2022/07/21 06:21:29;;;;;;;3.22;2.50;;;28.10;53.60;28.50;100797.00;;;;4956927;28;89448;-64
2022/07/21 06:23:55;;;;;;;5.57;2.88;;;28.20;53.50;28.60;100794.00;;;;4957795;28;89107;-64
2022/07/21 06:26:20;;;;;;;4.03;2.80;;;28.30;53.20;28.70;100797.00;;;;4957346;28;87634;-64
2022/07/21 06:28:46;;;;;;;5.00;2.92;;;28.40;52.90;28.80;100799.00;;;;4962563;28;108497;-63
2022/07/21 06:31:12;;;;;;;5.47;2.72;;;28.50;52.60;28.90;100798.00;;;;4944711;28;93835;-63
2022/07/21 06:33:37;;;;;;;3.22;2.67;;;28.60;52.50;29.00;100790.00;;;;4955252;28;117864;-64
2022/07/21 06:36:03;;;;;;;5.47;2.97;;;28.70;52.20;29.20;100793.00;;;;4957287;28;87702;-63
2022/07/21 06:38:29;;;;;;;5.88;3.35;;;28.80;51.80;29.40;100797.00;;;;4938459;28;95135;-63
2022/07/21 06:40:55;;;;;;;3.40;2.47;;;29.00;51.50;29.50;100791.00;;;;4956686;28;88043;-63
2022/07/21 06:43:21;;;;;;;5.90;2.63;;;29.20;51.40;29.70;100795.00;;;;4956258;28;106930;-64
2022/07/21 06:45:46;;;;;;;2.85;2.08;;;29.30;51.00;29.80;100792.00;;;;4955894;28;88853;-64
2022/07/21 06:48:12;;;;;;;7.45;2.83;;;29.50;51.40;30.00;100801.00;;;;4955899;28;110321;-64
2022/07/21 06:50:38;;;;;;;3.95;2.83;;;29.60;50.50;30.10;100799.00;;;;4956492;28;88902;-63
2022/07/21 06:53:04;;;;;;;4.05;2.70;;;29.70;49.80;30.20;100792.00;;;;4956837;28;87690;-64
2022/07/21 06:55:30;;;;;;;3.72;2.72;;;29.90;49.40;30.30;100788.00;;;;4956920;28;88117;-62
2022/07/21 06:57:56;;;;;;;4.03;2.92;;;30.00;49.10;30.40;100797.00;;;;4955792;28;108639;-64
2022/07/21 07:00:22;;;;;;;4.18;2.45;;;30.10;49.00;30.50;100798.00;;;;4954908;28;115658;-64
2022/07/21 07:02:47;;;;;;;2.70;2.42;;;30.20;48.70;30.60;100802.00;;;;4956868;28;87340;-64
2022/07/21 07:05:13;;;;;;;5.18;2.50;;;30.20;48.10;30.50;100803.00;;;;4938386;28;97170;-64
2022/07/21 07:07:39;;;;;;;3.20;2.38;;;30.30;47.90;30.50;100799.00;;;;4956664;28;88028;-64
2022/07/21 07:10:06;;;;;;;5.07;2.65;;;30.30;47.90;30.60;100807.00;;;;4956426;28;90058;-63
2022/07/21 07:12:31;;;;;;;3.72;2.03;;;30.30;47.70;30.60;100812.00;;;;4956221;28;90010;-64
2022/07/21 07:14:57;;;;;;;2.88;2.45;;;30.40;47.70;30.70;100811.00;;;;4956405;28;110075;-65
2022/07/21 07:17:23;;;;;;;4.07;2.47;;;30.40;47.70;30.90;100813.00;;;;4955426;28;108413;-64
2022/07/21 07:19:50;;;;;;;3.75;2.63;;;30.50;47.60;31.20;100811.00;;;;4955898;28;88038;-64
2022/07/21 07:22:15;;;;;;;2.40;2.20;;;30.80;48.30;31.40;100810.00;;;;4955204;28;117625;-64
2022/07/21 07:24:41;;;;;;;4.95;2.70;;;31.00;47.20;31.50;100808.00;;;;4955867;28;87627;-63
2022/07/21 07:27:07;;;;;;;4.53;2.67;;;31.20;46.90;31.60;100811.00;;;;4955595;28;110072;-64
2022/07/21 07:29:33;;;;;;;5.70;2.78;;;31.20;46.50;31.70;100822.00;;;;4954847;28;117778;-64
2022/07/21 07:31:59;;;;;;;3.38;3.08;;;31.30;46.40;31.70;100815.00;;;;4956240;28;89917;-65
2022/07/21 07:34:25;;;;;;;3.53;2.90;;;31.40;46.10;31.70;100820.00;;;;4955680;28;88766;-64
2022/07/21 07:36:51;;;;;;;5.43;3.10;;;31.40;46.10;31.70;100820.00;;;;4956739;28;98763;-64
2022/07/21 07:39:17;;;;;;;2.70;2.10;;;31.40;45.50;31.70;100823.00;;;;4955253;28;118125;-64
2022/07/21 07:41:43;;;;;;;4.18;2.47;;;31.40;45.50;31.80;100826.00;;;;4954916;28;87834;-64
2022/07/21 07:44:09;;;;;;;2.65;2.35;;;31.50;45.60;31.90;100830.00;;;;4955637;28;87925;-65
2022/07/21 07:46:35;;;;;;;7.00;3.35;;;31.60;45.30;32.10;100831.00;;;;4937913;28;88093;-64
2022/07/21 07:49:01;;;;;;;4.32;3.45;;;31.70;45.10;32.30;100830.00;;;;4956052;28;88837;-65
2022/07/21 07:51:27;;;;;;;4.10;2.83;;;31.90;44.90;32.50;100832.00;;;;4956446;28;87936;-65
2022/07/21 07:53:53;;;;;;;2.83;2.35;;;32.10;44.40;32.60;100831.00;;;;4956410;28;87743;-65
2022/07/21 07:56:18;;;;;;;4.03;2.85;;;32.20;44.00;32.70;100838.00;;;;4954979;28;109684;-63
2022/07/21 07:58:44;;;;;;;3.20;2.22;;;32.40;43.70;32.80;100831.00;;;;4953875;28;119803;-65
2022/07/21 08:01:10;;;;;;;10.23;2.97;;;32.50;43.60;32.80;100839.00;;;;4955064;28;117508;-65
2022/07/21 08:03:36;;;;;;;2.78;2.40;;;32.50;43.30;32.90;100843.00;;;;4954531;28;110134;-64
2022/07/21 08:06:03;;;;;;;3.58;2.00;;;32.60;43.30;32.90;100838.00;;;;4955386;28;108671;-65
2022/07/21 08:08:30;;;;;;;3.72;2.28;;;32.60;42.80;33.00;100835.00;;;;4955298;28;87840;-65
2022/07/21 08:10:57;;;;;;;3.75;2.05;;;32.70;43.00;33.20;100833.00;;;;4955477;28;88156;-65
2022/07/21 08:13:22;;;;;;;3.33;2.25;;;32.80;42.60;33.20;100833.00;;;;4955960;28;87805;-65
2022/07/21 08:15:49;;;;;;;5.15;2.60;;;32.80;42.20;33.10;100839.00;;;;4956067;28;86890;-64
2022/07/21 08:18:15;;;;;;;4.22;2.47;;;32.80;42.00;33.00;100851.00;;;;4954873;28;87788;-65
2022/07/21 08:20:42;;;;;;;4.35;2.58;;;32.80;41.90;33.00;100846.00;;;;4954447;28;101279;-64
2022/07/21 08:23:08;;;;;;;5.90;2.88;;;32.70;42.20;33.10;100856.00;;;;4955203;28;88911;-65
2022/07/21 08:25:34;;;;;;;3.28;2.45;;;32.70;42.10;33.00;100851.00;;;;4955713;28;87864;-65
2022/07/21 08:28:00;;;;;;;3.78;2.80;;;32.80;42.20;33.00;100851.00;;;;4955633;28;87759;-64
2022/07/21 08:30:26;;;;;;;3.88;2.67;;;32.70;42.30;33.00;100844.00;;;;4954395;28;116445;-64
2022/07/21 08:32:52;;;;;;;4.43;2.47;;;32.70;42.70;33.30;100851.00;;;;4954999;28;96307;-65
2022/07/21 08:35:18;;;;;;;2.83;2.13;;;32.80;42.30;33.40;100854.00;;;;4954343;28;108249;-65
2022/07/21 08:37:59;;;;;;;7.90;2.22;;;32.90;42.30;33.60;100849.00;;;;4953596;28;118507;-65
2022/07/21 08:40:26;;;;;;;4.90;2.80;;;33.20;42.30;33.70;100852.00;;;;4955545;28;88649;-64
2022/07/21 08:42:53;;;;;;;2.17;1.98;;;33.20;42.10;33.60;100851.00;;;;4954827;28;91222;-64
2022/07/21 08:45:21;;;;;;;6.53;1.95;;;33.30;42.00;33.60;100854.00;;;;4954103;28;103111;-65
2022/07/21 08:47:52;;;;;;;3.40;2.47;;;33.30;41.90;33.60;100851.00;;;;4936316;28;89324;-65
2022/07/21 08:50:18;;;;;;;8.27;2.75;;;33.20;41.80;33.40;100856.00;;;;4953129;28;89072;-63
2022/07/21 08:52:44;;;;;;;2.95;2.65;;;33.10;41.70;33.30;100855.00;;;;4953579;28;89685;-65
2022/07/21 08:55:10;;;;;;;3.97;2.72;;;33.00;42.10;33.30;100856.00;;;;4934231;28;108071;-65
2022/07/21 08:57:39;;;;;;;3.75;2.40;;;33.00;42.20;33.20;100856.00;;;;4953411;28;116206;-65
2022/07/21 09:00:08;;;;;;;4.60;2.63;;;32.90;41.50;33.00;100846.00;;;;4954439;28;88391;-63
2022/07/21 09:02:37;;;;;;;2.72;1.98;;;32.70;41.70;33.00;100858.00;;;;4953701;28;87883;-65
2022/07/21 09:05:07;;;;;;;3.67;2.58;;;32.60;42.00;33.10;100848.00;;;;4953529;28;87156;-65
2022/07/21 09:07:57;;;;;;;3.60;2.17;;;32.70;42.10;33.40;100850.00;;;;4954929;28;88947;-64
2022/07/21 09:10:27;;;;;;;4.75;2.38;;;33.00;41.90;33.60;100854.00;;;;4953428;28;87985;-64
2022/07/21 09:13:00;;;;;;;2.65;1.75;;;33.10;41.60;33.80;100859.00;;;;4954583;28;99901;-65
2022/07/21 09:15:28;;;;;;;4.45;2.05;;;33.50;41.70;34.10;100861.00;;;;4956092;28;87757;-64
2022/07/21 09:18:23;;;;;;;1.75;1.63;;;33.60;41.40;34.60;100860.00;;;;4954961;28;88897;-64
2022/07/21 09:20:53;;;;;;;2.88;1.98;;;34.00;41.00;34.80;100851.00;;;;4929608;28;115733;-65
2022/07/21 09:23:22;;;;;;;3.60;1.92;;;34.30;40.70;34.90;100860.00;;;;4927034;28;87911;-64
2022/07/21 09:25:58;;;;;;;2.63;1.73;;;34.40;40.10;34.80;100864.00;;;;4947210;28;87661;-65
2022/07/21 09:28:28;;;;;;;2.13;1.92;;;34.40;39.30;34.80;100860.00;;;;4954412;28;88613;-65
2022/07/21 09:31:10;;;;;;;3.03;1.95;;;34.40;39.80;35.00;100867.00;;;;4954750;28;88769;-64
2022/07/21 09:33:45;;;;;;;1.83;1.58;;;34.50;39.90;35.20;100873.00;;;;4936197;28;87815;-64
2022/07/21 09:36:15;;;;;;;1.98;1.70;;;34.70;39.40;35.30;100864.00;;;;4954196;28;87916;-64
2022/07/21 09:38:48;;;;;;;2.83;2.13;;;34.80;39.10;35.20;100878.00;;;;4953719;28;89003;-64
2022/07/21 09:41:17;;;;;;;1.70;1.60;;;34.80;38.30;35.00;100874.00;;;;4954053;28;88382;-65
2022/07/21 09:43:50;;;;;;;2.05;1.60;;;34.70;38.60;34.80;100872.00;;;;4954217;28;102264;-64
2022/07/21 09:46:20;;;;;;;3.05;1.90;;;34.50;38.40;34.60;100865.00;;;;4955106;28;87818;-64
2022/07/21 09:48:49;;;;;;;2.85;2.30;;;34.30;38.80;34.60;100874.00;;;;4953893;28;87805;-64
2022/07/21 09:51:43;;;;;;;3.28;2.35;;;34.20;39.20;34.70;100882.00;;;;4954273;28;87918;-65
2022/07/21 09:54:11;;;;;;;3.28;1.75;;;34.30;39.40;34.80;100892.00;;;;4954444;28;87546;-64
2022/07/21 09:56:41;;;;;;;4.25;1.52;;;34.40;39.20;34.90;100879.00;;;;4953875;28;86968;-65
2022/07/21 09:59:09;;;;;;;3.42;1.95;;;34.40;39.10;34.90;100878.00;;;;4954032;28;87965;-65
2022/07/21 10:01:38;;;;;;;3.58;2.25;;;34.40;39.00;35.00;100889.00;;;;4935301;28;88776;-64
2022/07/21 10:04:05;;;;;;;1.98;1.58;;;34.50;39.30;35.30;100882.00;;;;4955633;28;88625;-64
2022/07/21 10:06:37;;;;;;;2.63;1.90;;;34.70;39.30;35.70;100876.00;;;;4958610;28;87682;-64
2022/07/21 10:09:06;;;;;;;2.47;1.80;;;35.00;38.90;35.90;100873.00;;;;4957293;28;87951;-64
2022/07/21 10:11:33;;;;;;;3.75;2.35;;;35.30;38.30;36.10;100875.00;;;;4957611;28;88297;-64
2022/07/21 10:13:59;;;;;;;3.13;2.13;;;35.50;38.10;36.30;100870.00;;;;4956791;28;111035;-64
2022/07/21 10:16:25;;;;;;;2.17;1.75;;;35.70;37.80;36.50;100862.00;;;;4938498;28;108146;-64
2022/07/21 10:19:42;;;;;;;2.47;1.65;;;35.90;37.60;36.70;100856.00;;;;4934903;28;88350;-65
2022/07/21 10:23:01;;;;;;;2.58;2.30;;;36.10;37.40;36.70;100849.00;;;;4924577;28;88480;-63
2022/07/21 10:25:27;;;;;;;4.80;2.45;;;36.10;37.00;36.70;100838.00;;;;4949388;28;87774;-64
2022/07/21 10:28:23;;;;;;;2.42;1.58;;;36.10;37.10;37.10;100850.00;;;;4938389;28;108801;-64
2022/07/21 10:30:58;;;;;;;3.78;2.13;;;36.30;37.30;37.20;100845.00;;;;4956363;28;89223;-63
2022/07/21 10:33:42;;;;;;;3.92;1.92;;;36.60;37.00;37.40;100834.00;;;;4957344;28;89114;-63
2022/07/21 10:36:09;;;;;;;1.20;1.10;;;36.70;36.50;37.40;100838.00;;;;4957561;28;87706;-63
2022/07/21 10:38:37;;;;;;;1.30;1.17;;;36.80;36.60;37.30;100838.00;;;;4956633;28;100548;-64
2022/07/21 10:41:05;;;;;;;1.77;1.33;;;36.70;36.30;37.20;100846.00;;;;4956171;28;88048;-64
2022/07/21 10:43:30;;;;;;;1.38;1.08;;;36.60;36.40;37.20;100843.00;;;;4957781;28;88142;-63
2022/07/21 10:45:59;;;;;;;1.10;1.00;;;36.60;36.60;37.40;100844.00;;;;4957320;28;87703;-64
2022/07/21 10:48:36;;;;;;;2.22;1.40;;;36.70;36.50;37.50;100856.00;;;;4956693;28;99687;-63
2022/07/21 10:51:14;;;;;;;3.28;1.77;;;36.80;36.60;37.50;100856.00;;;;4937924;28;102445;-63